createdAt,value
2023-01-04T00:01:28.529Z,1.90
2023-01-04T00:03:56.197Z,1.98
2023-01-04T00:06:23.572Z,1.96
2023-01-04T00:08:50.886Z,1.84
2023-01-04T00:11:21.426Z,2.04
2023-01-04T00:13:51.013Z,2.33
2023-01-04T00:16:23.595Z,2.41
2023-01-04T00:18:52.863Z,2.36
2023-01-04T00:21:26.348Z,1.95
2023-01-04T00:23:57.101Z,2.03
2023-01-04T00:26:32.700Z,2.15
2023-01-04T00:29:07.724Z,2.24
2023-01-04T00:31:35.903Z,2.24
2023-01-04T00:34:05.446Z,2.49
2023-01-04T00:36:33.652Z,2.63
2023-01-04T00:39:08.903Z,2.91
2023-01-04T00:44:30.617Z,2.90
2023-01-04T00:46:58.461Z,3.15
2023-01-04T00:49:26.991Z,3.33
2023-01-04T00:51:55.275Z,3.38
2023-01-04T00:54:22.904Z,3.64
2023-01-04T00:56:50.415Z,3.76
2023-01-04T00:59:20.799Z,3.94
2023-01-04T01:01:48.772Z,4.13
2023-01-04T01:04:19.142Z,4.28
2023-01-04T01:06:47.114Z,4.56
2023-01-04T01:09:15.225Z,4.56
2023-01-04T01:11:42.731Z,4.57
2023-01-04T01:14:17.784Z,4.80
2023-01-04T01:16:55.210Z,4.79
2023-01-04T01:19:26.552Z,4.84
2023-01-04T01:21:54.033Z,5.16
2023-01-04T01:24:21.423Z,5.45
2023-01-04T01:26:49.208Z,5.45
2023-01-04T01:29:16.647Z,5.55
2023-01-04T01:31:44.253Z,5.70
2023-01-04T01:34:11.859Z,5.58
2023-01-04T01:36:39.130Z,5.74
2023-01-04T01:39:06.984Z,5.70
2023-01-04T01:41:35.753Z,6.05
2023-01-04T01:44:27.549Z,6.07
2023-01-04T01:46:55.662Z,6.22
2023-01-04T01:49:33.865Z,6.30
2023-01-04T01:52:09.348Z,6.33
2023-01-04T01:54:42.344Z,6.26
2023-01-04T01:57:13.990Z,6.18
2023-01-04T01:59:44.365Z,6.25
2023-01-04T02:02:12.831Z,6.22
2023-01-04T02:04:45.080Z,6.31
2023-01-04T02:07:14.853Z,6.29
2023-01-04T02:09:43.037Z,6.31
2023-01-04T02:12:14.326Z,6.28
2023-01-04T02:14:44.430Z,6.44
2023-01-04T02:17:17.334Z,6.29
2023-01-04T02:19:57.631Z,6.33
2023-01-04T02:22:58.868Z,6.47
2023-01-04T02:25:26.412Z,6.46
2023-01-04T02:27:58.054Z,6.50
2023-01-04T02:30:44.195Z,6.41
2023-01-04T02:33:15.173Z,6.28
2023-01-04T02:36:00.659Z,6.29
2023-01-04T02:38:43.478Z,6.44
2023-01-04T02:41:25.952Z,6.36
2023-01-04T02:44:26.796Z,6.29
2023-01-04T02:47:03.238Z,6.29
2023-01-04T02:49:49.590Z,6.39
2023-01-04T02:52:17.051Z,6.25
2023-01-04T02:54:46.004Z,6.19
2023-01-04T02:57:13.214Z,6.10
2023-01-04T02:59:55.739Z,6.11
2023-01-04T03:03:00.911Z,6.20
2023-01-04T03:06:01.949Z,6.15
2023-01-04T03:08:38.589Z,6.21
2023-01-04T03:11:33.673Z,6.19
2023-01-04T03:14:32.573Z,6.21
2023-01-04T03:16:56.486Z,6.15
2023-01-04T03:19:44.666Z,6.16
2023-01-04T03:22:34.666Z,6.03
2023-01-04T03:25:23.437Z,6.09
2023-01-04T03:28:12.406Z,6.21
2023-01-04T03:31:09.792Z,6.17
2023-01-04T03:33:56.123Z,6.18
2023-01-04T03:36:46.617Z,6.11
2023-01-04T03:39:51.363Z,5.76
2023-01-04T03:42:56.024Z,5.87
2023-01-04T03:45:46.991Z,5.71
2023-01-04T03:48:32.580Z,5.65
2023-01-04T03:51:26.171Z,5.35
2023-01-04T03:54:00.137Z,5.37
2023-01-04T03:56:29.899Z,5.12
2023-01-04T03:58:58.207Z,5.07
2023-01-04T04:01:27.504Z,5.22
2023-01-04T04:04:14.859Z,5.09
2023-01-04T04:07:01.228Z,5.21
2023-01-04T04:09:29.603Z,5.29
2023-01-04T04:11:57.722Z,5.26
2023-01-04T04:14:25.981Z,5.03
2023-01-04T04:16:53.775Z,4.70
2023-01-04T04:19:22.532Z,4.55
2023-01-04T04:21:50.425Z,4.46
2023-01-04T04:24:28.218Z,4.58
2023-01-04T04:26:56.245Z,4.58
2023-01-04T04:29:25.547Z,4.56
2023-01-04T04:31:54.049Z,4.79
2023-01-04T04:34:21.749Z,4.88
2023-01-04T04:36:50.280Z,5.06
2023-01-04T04:39:20.940Z,5.06
2023-01-04T04:41:49.611Z,5.26
2023-01-04T04:44:20.058Z,5.39
2023-01-04T04:46:48.743Z,5.45
2023-01-04T04:49:18.905Z,5.63
2023-01-04T04:51:47.209Z,5.62
2023-01-04T04:54:20.756Z,5.65
2023-01-04T04:56:50.258Z,5.86
2023-01-04T04:59:18.119Z,6.02
2023-01-04T05:01:45.905Z,5.95
2023-01-04T05:04:19.927Z,6.03
2023-01-04T05:06:49.449Z,6.20
2023-01-04T05:09:17.269Z,6.24
2023-01-04T05:12:03.425Z,6.35
2023-01-04T05:14:31.485Z,6.17
2023-01-04T05:16:58.916Z,6.20
2023-01-04T05:19:26.380Z,6.28
2023-01-04T05:21:54.206Z,6.29
2023-01-04T05:24:21.712Z,6.29
2023-01-04T05:26:49.085Z,6.21
2023-01-04T05:29:35.366Z,6.34
2023-01-04T05:32:02.908Z,6.25
2023-01-04T05:34:30.540Z,6.16
2023-01-04T05:36:58.131Z,6.43
2023-01-04T05:39:25.606Z,6.39
2023-01-04T05:42:11.719Z,6.40
2023-01-04T05:44:39.130Z,6.35
2023-01-04T05:47:12.887Z,6.48
2023-01-04T05:49:42.323Z,6.48
2023-01-04T05:52:11.989Z,6.49
2023-01-04T05:54:39.845Z,6.56
2023-01-04T05:57:08.132Z,6.52
2023-01-04T05:59:41.560Z,6.67
2023-01-04T06:02:20.496Z,6.70
2023-01-04T06:04:52.949Z,6.48
2023-01-04T06:07:24.701Z,6.58
2023-01-04T06:09:52.362Z,6.69
2023-01-04T06:12:19.774Z,6.54
2023-01-04T06:14:47.365Z,6.36
2023-01-04T06:17:15.018Z,6.59
2023-01-04T06:19:42.567Z,6.68
2023-01-04T06:22:09.910Z,6.57
2023-01-04T06:24:37.508Z,6.58
2023-01-04T06:27:04.949Z,6.55
2023-01-04T06:29:32.411Z,6.59
2023-01-04T06:32:00.179Z,6.68
2023-01-04T06:34:31.082Z,6.78
2023-01-04T06:36:59.317Z,6.78
2023-01-04T06:39:27.122Z,6.74
2023-01-04T06:41:56.981Z,6.99
2023-01-04T06:44:29.911Z,6.74
2023-01-04T06:46:57.396Z,6.84
2023-01-04T06:49:25.016Z,6.80
2023-01-04T06:51:52.664Z,6.70
2023-01-04T06:54:20.153Z,6.87
2023-01-04T06:56:47.607Z,6.78
2023-01-04T06:59:15.534Z,6.88
2023-01-04T07:01:43.328Z,6.87
2023-01-04T07:04:10.819Z,6.96
2023-01-04T07:06:38.572Z,7.07
2023-01-04T07:09:06.045Z,7.09
2023-01-04T07:11:33.489Z,7.06
2023-01-04T07:14:01.402Z,6.92
2023-01-04T07:16:28.766Z,7.09
2023-01-04T07:18:56.325Z,6.99
2023-01-04T07:21:26.458Z,7.04
2023-01-04T07:23:54.059Z,7.17
2023-01-04T07:26:21.450Z,6.94
2023-01-04T07:29:07.761Z,6.99
2023-01-04T07:31:35.398Z,7.17
2023-01-04T07:34:03.380Z,7.14
2023-01-04T07:36:30.914Z,7.08
2023-01-04T07:39:02.295Z,6.95
2023-01-04T07:41:30.670Z,7.08
2023-01-04T07:43:58.073Z,7.16
2023-01-04T07:46:25.589Z,7.26
2023-01-04T07:48:53.336Z,7.34
2023-01-04T07:51:21.882Z,7.43
2023-01-04T07:53:49.316Z,7.42
2023-01-04T07:56:19.067Z,7.42
2023-01-04T07:58:46.592Z,7.48
2023-01-04T08:01:18.807Z,7.50
2023-01-04T08:03:47.903Z,7.55
2023-01-04T08:06:16.956Z,7.50
2023-01-04T08:08:44.844Z,7.41
2023-01-04T08:11:18.408Z,7.41
2023-01-04T08:13:48.572Z,7.55
2023-01-04T08:16:34.838Z,7.62
2023-01-04T08:19:08.740Z,7.49
2023-01-04T08:21:36.929Z,7.69
2023-01-04T08:24:05.440Z,7.54
2023-01-04T08:26:33.329Z,7.45
2023-01-04T08:29:01.122Z,7.41
2023-01-04T08:31:30.968Z,7.38
2023-01-04T08:33:59.782Z,7.27
2023-01-04T08:36:29.966Z,7.31
2023-01-04T08:39:02.870Z,7.30
2023-01-04T08:44:24.557Z,7.16
2023-01-04T08:46:53.725Z,7.38
2023-01-04T08:49:22.475Z,7.38
2023-01-04T08:51:49.970Z,7.32
2023-01-04T08:54:18.109Z,7.29
2023-01-04T08:56:45.569Z,7.22
2023-01-04T08:59:13.915Z,7.29
2023-01-04T09:01:42.471Z,7.24
2023-01-04T09:04:10.176Z,7.37
2023-01-04T09:06:38.656Z,7.45
2023-01-04T09:09:07.055Z,7.32
2023-01-04T09:11:35.978Z,7.32
2023-01-04T09:14:08.572Z,7.17
2023-01-04T09:16:40.739Z,7.28
2023-01-04T09:19:08.556Z,7.09
2023-01-04T09:21:35.956Z,7.24
2023-01-04T09:24:05.021Z,7.18
2023-01-04T09:26:32.347Z,7.22
2023-01-04T09:28:59.810Z,7.20
2023-01-04T09:31:29.141Z,7.06
2023-01-04T09:34:15.759Z,7.30
2023-01-04T09:36:46.157Z,7.41
2023-01-04T09:39:21.481Z,7.22
2023-01-04T09:41:55.197Z,7.12
2023-01-04T09:45:21.548Z,7.13
2023-01-04T09:47:39.901Z,7.09
2023-01-04T09:50:29.752Z,7.18
2023-01-04T09:53:10.228Z,7.13
2023-01-04T09:55:43.557Z,7.02
2023-01-04T09:58:33.085Z,7.08
2023-01-04T10:01:05.430Z,7.14
2023-01-04T10:03:39.260Z,7.19
2023-01-04T10:06:12.104Z,7.27
2023-01-04T10:08:42.758Z,7.11
2023-01-04T10:11:28.786Z,7.24
2023-01-04T10:14:24.912Z,7.27
2023-01-04T10:17:28.248Z,7.37
2023-01-04T10:21:20.791Z,7.05
2023-01-04T10:23:41.164Z,7.11
2023-01-04T10:26:08.848Z,7.10
2023-01-04T10:28:39.580Z,6.96
2023-01-04T10:31:39.440Z,6.97
2023-01-04T10:34:24.510Z,7.06
2023-01-04T10:37:00.972Z,7.02
2023-01-04T10:39:36.161Z,7.09
2023-01-04T10:42:22.501Z,7.10
2023-01-04T10:45:16.134Z,7.06
2023-01-04T10:48:13.595Z,7.13
2023-01-04T10:50:55.353Z,7.23
2023-01-04T10:53:33.767Z,7.06
2023-01-04T10:56:23.877Z,7.31
2023-01-04T10:58:55.103Z,7.35
2023-01-04T11:01:45.412Z,7.36
2023-01-04T11:04:29.177Z,7.46
2023-01-04T11:07:13.672Z,7.20
2023-01-04T11:09:50.392Z,7.38
2023-01-04T11:12:23.006Z,7.20
2023-01-04T11:14:53.244Z,7.41
2023-01-04T11:17:24.215Z,7.25
2023-01-04T11:19:51.634Z,7.52
2023-01-04T11:22:30.520Z,7.45
2023-01-04T11:27:59.180Z,7.51
2023-01-04T11:30:35.933Z,7.40
2023-01-04T11:33:11.427Z,7.36
2023-01-04T11:35:56.001Z,7.38
2023-01-04T11:38:28.372Z,7.64
2023-01-04T11:40:56.076Z,7.74
2023-01-04T11:43:24.743Z,7.79
2023-01-04T11:45:56.660Z,7.79
2023-01-04T11:48:43.024Z,7.73
2023-01-04T11:51:37.036Z,7.85
2023-01-04T11:54:24.984Z,7.85
2023-01-04T11:57:11.697Z,7.79
2023-01-04T11:59:40.103Z,8.05
2023-01-04T12:02:59.365Z,7.98
2023-01-04T12:05:28.171Z,7.95
2023-01-04T12:07:58.373Z,7.79
2023-01-04T12:10:28.112Z,7.76
2023-01-04T12:12:57.872Z,7.86
2023-01-04T12:15:34.640Z,7.57
2023-01-04T12:18:15.382Z,7.75
2023-01-04T12:20:43.626Z,7.68
2023-01-04T12:23:13.216Z,7.73
2023-01-04T12:25:46.825Z,7.87
2023-01-04T12:28:36.042Z,7.97
2023-01-04T12:31:22.395Z,8.00
2023-01-04T12:33:56.387Z,8.07
2023-01-04T12:36:39.024Z,8.39
2023-01-04T12:39:55.956Z,8.53
2023-01-04T12:42:27.137Z,9.17
2023-01-04T12:44:56.169Z,10.14
2023-01-04T12:47:48.363Z,10.65
2023-01-04T12:50:25.225Z,11.31
2023-01-04T12:53:29.567Z,12.31
2023-01-04T12:55:52.885Z,11.97
2023-01-04T13:02:24.949Z,10.88
2023-01-04T13:05:25.644Z,10.11
2023-01-04T13:07:55.461Z,9.89
2023-01-04T13:10:34.192Z,9.64
2023-01-04T13:13:28.277Z,9.56
2023-01-04T13:16:03.312Z,9.45
2023-01-04T13:18:34.459Z,9.27
2023-01-04T13:21:12.956Z,9.06
2023-01-04T13:23:46.799Z,9.08
2023-01-04T13:26:43.353Z,9.06
2023-01-04T13:29:21.843Z,9.02
2023-01-04T13:32:05.323Z,9.08
2023-01-04T13:34:36.601Z,9.07
2023-01-04T13:37:18.942Z,8.98
2023-01-04T13:39:49.893Z,9.02
2023-01-04T13:42:29.438Z,8.96
2023-01-04T13:45:20.158Z,8.89
2023-01-04T13:47:52.245Z,8.83
2023-01-04T13:50:31.425Z,8.87
2023-01-04T13:53:07.448Z,8.90
2023-01-04T13:55:38.456Z,8.89
2023-01-04T13:58:20.913Z,8.93
2023-01-04T14:00:53.762Z,8.97
2023-01-04T14:03:30.397Z,9.14
2023-01-04T14:06:23.251Z,9.02
2023-01-04T14:08:51.571Z,8.97
2023-01-04T14:11:46.904Z,9.07
2023-01-04T14:14:30.280Z,9.22
2023-01-04T14:17:12.887Z,9.35
2023-01-04T14:19:51.227Z,9.15
2023-01-04T14:22:35.679Z,9.07
2023-01-04T14:25:34.227Z,8.97
2023-01-04T14:28:28.576Z,8.99
2023-01-04T14:30:59.448Z,8.96
2023-01-04T14:33:41.795Z,8.90
2023-01-04T14:36:09.769Z,8.88
2023-01-04T14:38:44.275Z,8.80
2023-01-04T14:41:18.264Z,8.71
2023-01-04T14:43:49.363Z,8.70
2023-01-04T14:46:17.118Z,8.77
2023-01-04T14:48:44.443Z,8.76
2023-01-04T14:51:16.897Z,8.74
2023-01-04T14:53:44.694Z,8.78
2023-01-04T14:56:14.358Z,8.69
2023-01-04T14:58:42.462Z,8.57
2023-01-04T15:01:11.056Z,8.66
2023-01-04T15:03:38.743Z,8.76
2023-01-04T15:06:06.877Z,8.60
2023-01-04T15:08:34.738Z,8.67
2023-01-04T15:11:02.682Z,8.46
2023-01-04T15:13:38.419Z,8.45
2023-01-04T15:16:10.186Z,8.43
2023-01-04T15:18:37.593Z,8.35
2023-01-04T15:21:05.448Z,8.37
2023-01-04T15:23:33.121Z,8.28
2023-01-04T15:26:02.041Z,8.18
2023-01-04T15:28:29.558Z,8.33
2023-01-04T15:30:57.320Z,8.37
2023-01-04T15:33:25.039Z,8.30
2023-01-04T15:36:00.487Z,8.32
2023-01-04T15:38:28.335Z,8.43
2023-01-04T15:41:36.159Z,8.50
2023-01-04T15:44:04.774Z,8.38
2023-01-04T15:46:32.280Z,8.08
2023-01-04T15:48:59.776Z,8.07
2023-01-04T15:51:27.545Z,8.07
2023-01-04T15:53:54.977Z,8.13
2023-01-04T15:56:22.642Z,8.08
2023-01-04T15:58:55.299Z,8.00
2023-01-04T16:01:23.271Z,8.20
2023-01-04T16:03:53.897Z,8.31
2023-01-04T16:06:22.724Z,8.14
2023-01-04T16:08:52.143Z,8.20
2023-01-04T16:11:23.427Z,8.32
2023-01-04T16:13:53.620Z,8.11
2023-01-04T16:16:27.588Z,8.10
2023-01-04T16:18:57.285Z,8.06
2023-01-04T16:21:28.105Z,8.07
2023-01-04T16:24:06.941Z,8.05
2023-01-04T16:26:40.818Z,8.20
2023-01-04T16:29:08.859Z,8.23
2023-01-04T16:31:38.038Z,8.34
2023-01-04T16:34:06.268Z,8.12
2023-01-04T16:36:33.683Z,8.12
2023-01-04T16:39:01.895Z,8.06
2023-01-04T16:41:29.741Z,7.97
2023-01-04T16:43:59.637Z,8.09
2023-01-04T16:46:27.102Z,7.78
2023-01-04T16:48:59.847Z,7.77
2023-01-04T16:51:29.008Z,7.58
2023-01-04T16:53:56.708Z,7.49
2023-01-04T16:56:25.328Z,7.56
2023-01-04T16:58:52.767Z,7.50
2023-01-04T17:01:26.566Z,7.50
2023-01-04T17:03:56.548Z,7.57
2023-01-04T17:06:27.347Z,7.67
2023-01-04T17:08:56.014Z,7.64
2023-01-04T17:14:13.893Z,7.51
2023-01-04T17:16:42.485Z,7.70
2023-01-04T17:19:09.961Z,7.49
2023-01-04T17:21:37.363Z,7.45
2023-01-04T17:24:05.358Z,7.44
2023-01-04T17:26:33.360Z,7.55
2023-01-04T17:29:01.915Z,7.65
2023-01-04T17:31:32.746Z,7.69
2023-01-04T17:34:00.312Z,7.47
2023-01-04T17:36:27.763Z,7.54
2023-01-04T17:38:56.189Z,7.69
2023-01-04T17:41:25.347Z,7.72
2023-01-04T17:43:57.518Z,7.75
2023-01-04T17:46:25.493Z,7.80
2023-01-04T17:49:17.693Z,7.90
2023-01-04T17:51:40.807Z,7.77
2023-01-04T17:54:11.158Z,7.54
2023-01-04T17:56:38.580Z,7.66
2023-01-04T17:59:09.593Z,7.72
2023-01-04T18:01:37.168Z,7.57
2023-01-04T18:04:05.217Z,7.58
2023-01-04T18:06:35.973Z,7.56
2023-01-04T18:09:05.641Z,7.57
2023-01-04T18:11:34.173Z,7.58
2023-01-04T18:14:05.826Z,7.65
2023-01-04T18:16:57.133Z,7.67
2023-01-04T18:19:27.258Z,7.63
2023-01-04T18:21:55.554Z,7.69
2023-01-04T18:24:35.848Z,7.65
2023-01-04T18:27:23.626Z,7.60
2023-01-04T18:29:53.882Z,7.53
2023-01-04T18:32:23.639Z,7.54
2023-01-04T18:34:51.003Z,7.53
2023-01-04T18:37:19.129Z,7.64
2023-01-04T18:39:48.532Z,7.64
2023-01-04T18:42:16.412Z,7.57
2023-01-04T18:44:50.832Z,7.55
2023-01-04T18:47:20.152Z,7.50
2023-01-04T18:49:50.731Z,7.64
2023-01-04T18:52:20.115Z,7.57
2023-01-04T18:54:48.796Z,7.49
2023-01-04T18:57:16.738Z,7.47
2023-01-04T18:59:44.459Z,7.54
2023-01-04T19:02:17.424Z,7.58
2023-01-04T19:04:45.373Z,7.68
2023-01-04T19:07:12.849Z,7.72
2023-01-04T19:09:40.374Z,7.56
2023-01-04T19:12:08.292Z,7.52
2023-01-04T19:14:35.593Z,7.51
2023-01-04T19:17:03.018Z,7.70
2023-01-04T19:19:30.776Z,7.62
2023-01-04T19:21:58.166Z,7.73
2023-01-04T19:24:25.594Z,7.64
2023-01-04T19:26:55.220Z,7.65
2023-01-04T19:29:23.030Z,7.68
2023-01-04T19:31:50.416Z,7.76
2023-01-04T19:34:18.067Z,7.74
2023-01-04T19:36:45.607Z,7.81
2023-01-04T19:39:12.916Z,7.71
2023-01-04T19:41:40.619Z,7.62
2023-01-04T19:44:11.403Z,7.62
2023-01-04T19:46:40.365Z,7.66
2023-01-04T19:49:14.504Z,7.67
2023-01-04T19:51:45.558Z,7.62
2023-01-04T19:54:14.178Z,7.54
2023-01-04T19:56:42.021Z,7.63
2023-01-04T19:59:10.141Z,7.74
2023-01-04T20:01:38.359Z,7.77
2023-01-04T20:04:06.189Z,7.98
2023-01-04T20:06:33.696Z,7.89
2023-01-04T20:09:01.097Z,8.20
2023-01-04T20:11:29.068Z,7.89
2023-01-04T20:13:56.467Z,7.52
2023-01-04T20:16:23.909Z,7.73
2023-01-04T20:18:54.990Z,7.95
2023-01-04T20:21:22.378Z,7.80
2023-01-04T20:23:50.185Z,7.75
2023-01-04T20:26:19.346Z,7.37
2023-01-04T20:28:46.781Z,7.39
2023-01-04T20:31:15.979Z,7.51
2023-01-04T20:33:44.337Z,7.53
2023-01-04T20:36:23.646Z,7.40
2023-01-04T20:38:51.438Z,7.56
2023-01-04T20:41:21.497Z,7.59
2023-01-04T20:43:50.403Z,7.68
2023-01-04T20:46:22.655Z,7.77
2023-01-04T20:48:50.469Z,7.62
2023-01-04T20:51:23.571Z,7.61
2023-01-04T20:53:52.125Z,7.52
2023-01-04T20:56:25.479Z,7.43
2023-01-04T20:58:53.411Z,7.48
2023-01-04T21:01:22.257Z,7.48
2023-01-04T21:03:50.038Z,7.44
2023-01-04T21:06:18.813Z,7.38
2023-01-04T21:08:47.007Z,7.36
2023-01-04T21:11:14.891Z,7.18
2023-01-04T21:13:42.938Z,7.06
2023-01-04T21:16:11.899Z,7.03
2023-01-04T21:18:39.368Z,6.96
2023-01-04T21:21:08.344Z,6.76
2023-01-04T21:23:38.410Z,6.73
2023-01-04T21:26:08.416Z,6.70
2023-01-04T21:28:36.290Z,6.58
2023-01-04T21:31:10.132Z,6.52
2023-01-04T21:33:39.009Z,6.42
2023-01-04T21:36:19.437Z,6.28
2023-01-04T21:38:51.767Z,6.24
2023-01-04T21:41:19.765Z,6.25
2023-01-04T21:43:47.592Z,6.32
2023-01-04T21:46:15.795Z,6.20
2023-01-04T21:48:44.817Z,6.21
2023-01-04T21:51:13.220Z,6.55
2023-01-04T21:53:41.931Z,6.61
2023-01-04T21:56:18.875Z,6.33
2023-01-04T21:58:46.804Z,6.11
2023-01-04T22:01:29.842Z,6.13
2023-01-04T22:04:00.407Z,6.24
2023-01-04T22:06:27.935Z,6.41
2023-01-04T22:08:55.468Z,6.22
2023-01-04T22:11:23.298Z,6.36
2023-01-04T22:13:50.956Z,6.28
2023-01-04T22:16:18.580Z,6.31
2023-01-04T22:18:51.029Z,6.34
2023-01-04T22:21:20.500Z,6.37
2023-01-04T22:23:48.413Z,6.41
2023-01-04T22:26:16.047Z,6.33
2023-01-04T22:28:43.322Z,6.43
2023-01-04T22:31:13.547Z,6.43
2023-01-04T22:33:41.710Z,6.37
2023-01-04T22:36:19.056Z,6.45
2023-01-04T22:38:50.294Z,6.49
2023-01-04T22:41:19.276Z,6.52
2023-01-04T22:43:47.337Z,6.67
2023-01-04T22:46:17.802Z,6.56
2023-01-04T22:48:45.943Z,6.70
2023-01-04T22:51:15.847Z,6.66
2023-01-04T22:53:44.558Z,6.80
2023-01-04T22:56:19.359Z,6.88
2023-01-04T22:58:55.297Z,6.78
2023-01-04T23:01:26.430Z,6.82
2023-01-04T23:03:55.117Z,6.96
2023-01-04T23:06:24.019Z,6.84
2023-01-04T23:08:56.344Z,6.55
2023-01-04T23:11:24.175Z,6.45
2023-01-04T23:13:52.383Z,6.52
2023-01-04T23:16:26.285Z,6.52
2023-01-04T23:18:57.598Z,6.54
2023-01-04T23:21:24.917Z,6.57
2023-01-04T23:23:52.236Z,6.71
2023-01-04T23:26:23.119Z,6.77
2023-01-04T23:28:51.174Z,6.78
2023-01-04T23:31:21.642Z,6.91
2023-01-04T23:33:53.924Z,6.82
2023-01-04T23:36:26.655Z,6.83
2023-01-04T23:38:57.406Z,6.74
2023-01-04T23:41:54.305Z,6.80
2023-01-04T23:44:24.147Z,6.75
2023-01-04T23:46:56.873Z,6.83
2023-01-04T23:49:25.701Z,6.83
2023-01-04T23:51:53.339Z,6.92
2023-01-04T23:54:21.483Z,6.89
2023-01-04T23:56:49.240Z,6.29
2023-01-04T23:59:16.765Z,6.48
